Time;durP1;ratioP1;P1;durP2;ratioP2;P2;SDS_P1;SDS_P2;PMS_P1;PMS_P2;Temp;Humidity;BMP_temperature;BMP_pressure;BME280_temperature;BME280_humidity;BME280_pressure;Samples;Min_cycle;Max_cycle;Signal;HPM_P1;HPM_P2
2024/01/03 00:01:44;;;;;;;26.90;11.50;;;;;;;0.99;66.34;100537.95;107171;1257;97839;-67
2024/01/03 00:04:23;;;;;;;26.00;11.70;;;;;;;0.97;66.24;100541.73;107267;1260;97784;-65
2024/01/03 00:06:51;;;;;;;24.00;11.90;;;;;;;0.96;66.33;100539.52;107296;1256;111099;-63
2024/01/03 00:09:20;;;;;;;28.50;11.80;;;;;;;0.95;66.24;100535.48;107265;1257;108858;-64
2024/01/03 00:11:48;;;;;;;27.70;11.60;;;;;;;0.94;66.35;100528.63;107195;1257;108121;-64
2024/01/03 00:14:31;;;;;;;30.90;12.90;;;;;;;0.93;66.40;100525.53;107254;1256;97925;-64
2024/01/03 00:17:07;;;;;;;28.30;14.30;;;;;;;0.91;66.54;100523.67;107276;1257;97850;-63
2024/01/03 00:19:38;;;;;;;32.10;14.50;;;;;;;0.90;66.63;100519.34;107307;1257;111870;-63
2024/01/03 00:22:10;;;;;;;37.80;14.40;;;;;;;0.89;66.61;100514.61;107262;1257;108832;-63
2024/01/03 00:24:46;;;;;;;39.50;15.00;;;;;;;0.89;66.56;100507.71;107244;1257;107891;-64
2024/01/03 00:27:17;;;;;;;39.50;16.00;;;;;;;0.87;66.43;100501.65;107256;1257;97867;-64
2024/01/03 00:29:53;;;;;;;43.10;16.70;;;;;;;0.85;66.47;100493.61;107107;1257;97798;-64
2024/01/03 00:32:22;;;;;;;41.80;15.00;;;;;;;0.86;66.65;100487.95;107267;1257;110953;-64
2024/01/03 00:34:52;;;;;;;24.90;13.50;;;;;;;0.87;66.79;100483.98;107293;1257;107436;-64
2024/01/03 00:37:29;;;;;;;29.90;13.10;;;;;;;0.88;66.93;100482.02;107238;1256;108600;-64
2024/01/03 00:39:59;;;;;;;28.10;11.70;;;;;;;0.88;67.03;100478.98;107217;1259;97824;-66
2024/01/03 00:42:28;;;;;;;24.90;11.70;;;;;;;0.88;67.20;100477.55;107057;1255;97832;-65
2024/01/03 00:44:56;;;;;;;20.90;10.40;;;;;;;0.89;67.11;100469.59;107229;1258;112244;-66
2024/01/03 00:47:25;;;;;;;35.50;13.90;;;;;;;0.90;67.18;100472.34;107109;1257;107931;-64
2024/01/03 00:49:54;;;;;;;33.60;14.00;;;;;;;0.93;67.46;100488.42;107209;1256;105738;-64
2024/01/03 00:52:23;;;;;;;28.10;13.00;;;;;;;0.99;67.59;100482.67;107148;1257;97940;-64
2024/01/03 00:54:51;;;;;;;21.20;11.50;;;;;;;1.04;67.67;100479.90;107218;1257;98383;-64
2024/01/03 00:57:20;;;;;;;28.00;12.40;;;;;;;1.08;67.73;100477.91;107202;1257;111362;-65
2024/01/03 00:59:49;;;;;;;25.40;11.30;;;;;;;1.13;68.04;100467.41;107283;1256;108534;-64
2024/01/03 01:02:17;;;;;;;23.00;11.30;;;;;;;1.17;68.03;100473.73;107074;1256;107694;-65
2024/01/03 01:04:46;;;;;;;21.20;10.90;;;;;;;1.19;67.80;100470.98;107183;1256;97847;-64
2024/01/03 01:07:15;;;;;;;25.20;10.60;;;;;;;1.25;67.96;100467.64;107318;1256;99535;-63
2024/01/03 01:09:43;;;;;;;25.10;11.60;;;;;;;1.33;67.94;100467.57;107235;1257;111574;-65
2024/01/03 01:12:11;;;;;;;31.80;11.90;;;;;;;1.41;67.86;100459.92;107064;1257;107585;-64
2024/01/03 01:14:39;;;;;;;30.40;11.20;;;;;;;1.49;67.82;100458.42;107098;1262;106934;-65
2024/01/03 01:17:08;;;;;;;24.70;10.10;;;;;;;1.56;67.72;100450.94;107224;1257;97922;-64
2024/01/03 01:19:36;;;;;;;24.60;10.00;;;;;;;1.63;67.72;100450.04;107257;1257;97852;-64
2024/01/03 01:22:04;;;;;;;24.40;11.30;;;;;;;1.68;67.62;100440.92;107235;1256;112295;-64
2024/01/03 01:24:33;;;;;;;28.50;12.40;;;;;;;1.72;67.66;100439.80;107257;1257;108480;-64
2024/01/03 01:27:01;;;;;;;24.30;11.00;;;;;;;1.77;67.58;100438.45;107162;1257;107246;-63
2024/01/03 01:29:29;;;;;;;26.80;10.90;;;;;;;1.83;67.63;100437.23;107257;1257;97835;-64
2024/01/03 01:31:58;;;;;;;25.40;11.50;;;;;;;1.87;67.47;100434.87;107363;1257;97740;-66
2024/01/03 01:34:26;;;;;;;28.20;11.00;;;;;;;1.92;67.46;100434.75;107030;1257;110831;-65
2024/01/03 01:36:54;;;;;;;23.90;11.60;;;;;;;1.95;67.10;100439.20;107257;1257;107827;-65
2024/01/03 01:39:24;;;;;;;29.60;11.80;;;;;;;1.95;67.13;100440.42;107103;1257;109348;-64
2024/01/03 01:41:52;;;;;;;26.40;12.70;;;;;;;1.93;66.94;100436.70;107232;1257;97832;-64
2024/01/03 01:44:21;;;;;;;26.30;11.00;;;;;;;1.91;67.01;100431.13;107077;1257;97864;-64
2024/01/03 01:46:51;;;;;;;25.80;11.60;;;;;;;1.88;66.75;100425.27;107283;1257;112308;-63
2024/01/03 01:49:20;;;;;;;27.30;12.00;;;;;;;1.85;66.76;100420.67;107221;1257;107607;-65
2024/01/03 01:51:49;;;;;;;29.90;10.50;;;;;;;1.81;66.61;100419.68;107149;1257;107858;-64
2024/01/03 01:54:18;;;;;;;30.00;13.20;;;;;;;1.77;66.62;100408.55;107268;1257;97847;-62
2024/01/03 01:56:48;;;;;;;25.10;10.80;;;;;;;1.74;66.49;100400.26;107301;1259;97831;-64
2024/01/03 01:59:19;;;;;;;25.60;11.30;;;;;;;1.70;66.46;100401.52;107359;1257;111480;-63
2024/01/03 02:01:48;;;;;;;22.00;10.90;;;;;;;1.66;66.23;100401.63;107157;1257;108721;-65
2024/01/03 02:04:16;;;;;;;21.50;9.90;;;;;;;1.60;66.35;100404.78;107368;1256;107392;-65
2024/01/03 02:06:45;;;;;;;19.50;9.40;;;;;;;1.52;66.26;100400.99;107295;1257;97812;-64
2024/01/03 02:09:13;;;;;;;23.30;10.20;;;;;;;1.46;66.40;100386.11;107283;1256;97765;-63
2024/01/03 02:11:48;;;;;;;26.00;11.00;;;;;;;1.40;66.47;100385.21;107305;1257;112092;-62
2024/01/03 02:14:16;;;;;;;18.80;9.40;;;;;;;1.36;67.10;100388.42;107224;1257;110007;-65
2024/01/03 02:16:45;;;;;;;21.30;8.10;;;;;;;1.34;67.39;100383.80;107095;1257;107967;-63
2024/01/03 02:19:14;;;;;;;20.30;7.90;;;;;;;1.29;67.33;100375.56;107239;1256;97876;-64
2024/01/03 02:21:45;;;;;;;20.40;9.60;;;;;;;1.27;67.31;100377.63;107326;1259;98350;-63
2024/01/03 02:24:13;;;;;;;15.20;7.10;;;;;;;1.26;67.62;100386.52;107220;1256;111718;-64
2024/01/03 02:26:41;;;;;;;18.30;7.00;;;;;;;1.25;67.54;100383.95;107303;1257;108036;-64
2024/01/03 02:29:10;;;;;;;14.20;7.80;;;;;;;1.26;67.62;100373.63;107284;1256;109369;-62
2024/01/03 02:31:39;;;;;;;15.80;6.70;;;;;;;1.30;67.64;100373.07;107286;1256;97835;-62
2024/01/03 02:34:08;;;;;;;16.20;6.40;;;;;;;1.35;67.97;100369.95;107291;1257;97840;-63
2024/01/03 02:36:37;;;;;;;22.40;7.70;;;;;;;1.42;67.99;100363.05;107276;1259;111782;-64
2024/01/03 02:39:05;;;;;;;19.80;8.10;;;;;;;1.45;68.04;100356.66;107028;1257;108086;-66
2024/01/03 02:41:33;;;;;;;17.20;7.30;;;;;;;1.49;68.13;100354.11;107280;1256;107053;-64
2024/01/03 02:44:02;;;;;;;22.50;7.10;;;;;;;1.53;68.10;100351.77;107118;1254;98027;-63
2024/01/03 02:46:30;;;;;;;17.20;7.60;;;;;;;1.59;68.12;100346.88;107355;1254;98351;-64
2024/01/03 02:48:59;;;;;;;18.40;7.10;;;;;;;1.63;67.99;100345.77;107292;1254;111702;-63
2024/01/03 02:51:27;;;;;;;23.20;7.70;;;;;;;1.65;67.96;100347.04;107329;1254;106864;-64
2024/01/03 02:53:56;;;;;;;17.00;7.10;;;;;;;1.66;67.97;100335.67;107317;1259;107239;-65
2024/01/03 02:56:24;;;;;;;15.80;7.10;;;;;;;1.64;67.96;100344.98;107132;1256;97871;-63
2024/01/03 02:58:52;;;;;;;13.50;6.70;;;;;;;1.63;68.08;100335.11;107142;1256;97716;-64
2024/01/03 03:01:21;;;;;;;19.20;7.80;;;;;;;1.58;67.76;100331.52;107145;1260;111178;-64
2024/01/03 03:03:49;;;;;;;18.90;8.10;;;;;;;1.56;67.82;100316.26;107278;1254;108649;-62
2024/01/03 03:06:18;;;;;;;17.50;7.80;;;;;;;1.54;67.75;100318.65;107311;1255;107735;-63
2024/01/03 03:08:46;;;;;;;20.80;8.20;;;;;;;1.53;67.83;100322.80;107376;1259;97862;-64
2024/01/03 03:11:15;;;;;;;21.80;8.90;;;;;;;1.51;67.80;100318.13;107330;1256;97841;-63
2024/01/03 03:13:43;;;;;;;20.60;7.80;;;;;;;1.49;67.75;100319.12;107194;1256;111036;-64
2024/01/03 03:16:11;;;;;;;18.40;8.70;;;;;;;1.49;67.76;100320.71;107103;1256;107730;-64
2024/01/03 03:18:40;;;;;;;19.20;8.20;;;;;;;1.51;67.87;100314.59;107278;1254;107701;-64
2024/01/03 03:21:09;;;;;;;16.90;8.40;;;;;;;1.50;67.79;100301.91;107316;1254;97897;-65
2024/01/03 03:23:37;;;;;;;18.60;8.40;;;;;;;1.51;67.67;100290.53;107336;1254;98379;-64
2024/01/03 03:26:06;;;;;;;14.30;7.50;;;;;;;1.48;68.06;100285.98;107325;1256;112111;-65
2024/01/03 03:28:34;;;;;;;17.00;8.20;;;;;;;1.40;67.87;100280.45;107326;1256;108108;-65
2024/01/03 03:31:03;;;;;;;18.00;8.50;;;;;;;1.37;68.06;100280.40;107265;1256;107072;-65
2024/01/03 03:33:32;;;;;;;15.80;8.50;;;;;;;1.36;68.13;100278.73;107277;1257;97852;-63
2024/01/03 03:36:01;;;;;;;15.60;7.60;;;;;;;1.33;68.24;100277.30;107165;1256;97739;-63
2024/01/03 03:38:30;;;;;;;13.90;7.60;;;;;;;1.31;68.31;100268.73;107296;1257;111434;-66
2024/01/03 03:40:58;;;;;;;14.80;7.30;;;;;;;1.30;68.34;100263.34;107305;1256;107889;-64
2024/01/03 03:43:26;;;;;;;19.40;9.10;;;;;;;1.28;68.49;100257.10;107241;1257;108198;-65
2024/01/03 03:45:55;;;;;;;22.30;9.00;;;;;;;1.29;68.61;100252.45;107178;1257;97829;-63
2024/01/03 03:48:23;;;;;;;14.60;8.10;;;;;;;1.30;68.58;100249.58;107212;1256;98524;-64
2024/01/03 03:50:52;;;;;;;15.90;7.60;;;;;;;1.32;68.68;100239.75;107161;1260;111008;-63
2024/01/03 03:53:20;;;;;;;18.10;7.80;;;;;;;1.33;68.88;100240.04;107171;1256;107915;-64
2024/01/03 03:55:49;;;;;;;14.90;8.30;;;;;;;1.32;69.16;100235.11;107163;1256;108319;-65
2024/01/03 03:58:17;;;;;;;23.80;10.80;;;;;;;1.32;69.05;100222.58;107235;1256;97852;-65
2024/01/03 04:00:45;;;;;;;20.90;9.90;;;;;;;1.35;69.09;100221.55;107315;1256;97852;-66
2024/01/03 04:03:14;;;;;;;23.30;8.10;;;;;;;1.37;68.96;100225.86;107231;1256;110910;-68
2024/01/03 04:05:43;;;;;;;26.40;14.80;;;;;;;1.39;68.94;100225.86;107285;1255;108097;-62
2024/01/03 04:08:11;;;;;;;19.40;8.80;;;;;;;1.44;69.14;100231.30;107308;1257;108606;-63
2024/01/03 04:10:40;;;;;;;15.60;7.90;;;;;;;1.48;69.43;100221.85;107307;1257;97833;-65
2024/01/03 04:13:09;;;;;;;20.40;7.90;;;;;;;1.51;69.59;100218.96;107318;1259;97845;-66
2024/01/03 04:15:37;;;;;;;22.50;9.30;;;;;;;1.57;69.93;100217.61;107314;1257;110535;-65
2024/01/03 04:18:05;;;;;;;18.70;8.90;;;;;;;1.62;70.41;100219.61;107327;1257;107499;-65
2024/01/03 04:20:34;;;;;;;20.00;9.30;;;;;;;1.69;70.99;100220.60;107287;1259;108261;-65
2024/01/03 04:23:03;;;;;;;22.40;9.20;;;;;;;1.74;70.89;100212.86;107124;1257;97941;-65
2024/01/03 04:25:31;;;;;;;21.50;10.10;;;;;;;1.78;70.63;100211.91;107115;1257;98415;-64
2024/01/03 04:28:00;;;;;;;25.10;10.20;;;;;;;1.83;70.66;100220.61;107073;1257;112239;-64
2024/01/03 04:30:28;;;;;;;25.30;10.50;;;;;;;1.89;70.71;100214.04;107054;1256;108105;-63
2024/01/03 04:32:56;;;;;;;20.30;10.80;;;;;;;1.93;70.86;100197.41;107008;1257;107867;-63
2024/01/03 04:35:25;;;;;;;27.40;12.20;;;;;;;1.96;70.76;100194.20;107103;1256;97852;-62
2024/01/03 04:37:53;;;;;;;26.90;13.00;;;;;;;2.01;70.57;100206.11;107015;1257;98379;-64
2024/01/03 04:40:22;;;;;;;30.60;12.30;;;;;;;2.04;70.57;100189.45;107227;1257;111324;-64
2024/01/03 04:42:50;;;;;;;24.50;11.40;;;;;;;2.08;70.61;100187.80;107230;1257;107428;-64
2024/01/03 04:45:18;;;;;;;24.90;11.60;;;;;;;2.11;70.77;100190.80;107174;1256;107294;-64
2024/01/03 04:47:47;;;;;;;22.50;11.50;;;;;;;2.13;70.71;100186.94;107173;1257;97906;-65
2024/01/03 04:50:15;;;;;;;21.10;11.60;;;;;;;2.18;70.68;100179.40;107210;1256;97822;-66
2024/01/03 04:52:43;;;;;;;25.10;10.80;;;;;;;2.22;70.60;100178.77;107208;1257;111277;-66
2024/01/03 04:55:12;;;;;;;20.10;10.60;;;;;;;2.28;70.78;100175.24;107162;1259;108861;-64
2024/01/03 04:57:40;;;;;;;23.70;10.70;;;;;;;2.33;70.66;100176.30;107181;1256;107649;-64
2024/01/03 05:00:09;;;;;;;18.40;9.20;;;;;;;2.38;70.53;100159.73;107135;1256;97951;-65
2024/01/03 05:02:37;;;;;;;18.80;10.00;;;;;;;2.39;70.91;100168.54;107209;1256;97734;-64
2024/01/03 05:05:06;;;;;;;23.70;8.50;;;;;;;2.40;70.61;100161.52;107192;1256;111748;-64
2024/01/03 05:07:35;;;;;;;14.80;8.50;;;;;;;2.48;70.34;100151.14;107250;1257;107485;-66
2024/01/03 05:10:08;;;;;;;17.80;9.40;;;;;;;2.59;70.56;100141.93;107122;1256;108261;-65
2024/01/03 05:12:37;;;;;;;23.00;10.30;;;;;;;2.62;70.34;100141.73;107228;1257;97931;-65
2024/01/03 05:15:07;;;;;;;20.10;8.60;;;;;;;2.58;70.08;100139.00;107094;1256;97961;-64
2024/01/03 05:17:36;;;;;;;19.00;9.30;;;;;;;2.59;70.07;100137.34;107224;1257;111549;-64
2024/01/03 05:20:05;;;;;;;20.20;10.10;;;;;;;2.58;70.18;100129.73;107237;1259;109007;-64
2024/01/03 05:22:34;;;;;;;20.80;9.40;;;;;;;2.61;70.42;100130.42;107212;1257;108397;-66
2024/01/03 05:25:05;;;;;;;17.00;9.00;;;;;;;2.62;70.23;100134.96;106945;1257;97965;-65
2024/01/03 05:27:34;;;;;;;23.20;11.20;;;;;;;2.64;70.40;100130.03;107215;1257;97947;-65
2024/01/03 05:30:06;;;;;;;18.40;8.80;;;;;;;2.74;70.51;100124.95;107229;1259;112896;-63
2024/01/03 05:32:35;;;;;;;16.30;8.10;;;;;;;2.83;70.31;100125.49;107222;1257;107347;-64
2024/01/03 05:35:04;;;;;;;17.60;8.10;;;;;;;2.88;70.40;100120.90;107193;1255;107873;-63
2024/01/03 05:37:32;;;;;;;22.70;14.40;;;;;;;2.91;70.24;100107.63;107201;1256;97755;-64
2024/01/03 05:40:01;;;;;;;19.10;8.60;;;;;;;2.95;70.18;100104.12;107194;1259;98469;-64
2024/01/03 05:42:29;;;;;;;18.30;9.50;;;;;;;2.96;69.82;100096.29;107235;1257;112358;-68
2024/01/03 05:44:57;;;;;;;20.70;10.30;;;;;;;3.00;69.78;100088.91;107092;1256;108572;-66
2024/01/03 05:47:26;;;;;;;21.80;11.30;;;;;;;3.03;69.67;100087.98;107044;1256;108025;-64
2024/01/03 05:49:55;;;;;;;20.60;10.80;;;;;;;3.06;69.64;100087.59;107039;1257;98388;-65
2024/01/03 05:52:23;;;;;;;25.00;12.10;;;;;;;3.11;69.25;100076.45;107112;1257;98367;-66
2024/01/03 05:54:52;;;;;;;20.70;10.40;;;;;;;3.11;69.08;100068.31;107228;1256;111505;-65
2024/01/03 05:57:20;;;;;;;22.90;10.80;;;;;;;3.08;69.01;100057.55;107253;1256;107942;-65
2024/01/03 05:59:49;;;;;;;26.00;12.80;;;;;;;3.07;68.83;100056.52;107202;1259;107821;-63
2024/01/03 06:02:17;;;;;;;21.40;12.20;;;;;;;3.05;68.84;100043.02;107217;1256;97856;-64
2024/01/03 06:04:47;;;;;;;24.50;12.80;;;;;;;3.05;69.22;100039.85;107033;1257;99430;-67
2024/01/03 06:07:15;;;;;;;42.60;18.20;;;;;;;3.06;69.04;100043.87;107255;1256;112150;-64
2024/01/03 06:09:44;;;;;;;38.40;17.30;;;;;;;3.07;69.28;100045.91;107253;1257;107885;-65
2024/01/03 06:12:13;;;;;;;30.80;13.80;;;;;;;3.06;69.29;100049.86;107241;1256;107590;-64
2024/01/03 06:14:43;;;;;;;22.40;12.10;;;;;;;3.03;69.46;100047.08;107238;1255;97992;-65
2024/01/03 06:17:11;;;;;;;24.40;11.80;;;;;;;3.01;69.48;100039.58;107109;1256;97754;-64
2024/01/03 06:19:39;;;;;;;36.90;15.30;;;;;;;2.99;69.52;100036.36;107189;1257;111259;-64
2024/01/03 06:22:09;;;;;;;60.30;22.50;;;;;;;2.96;69.38;100024.71;107317;1259;106832;-66
2024/01/03 06:24:37;;;;;;;75.80;27.10;;;;;;;2.96;69.39;100033.75;107229;1256;107774;-63
2024/01/03 06:27:06;;;;;;;209.50;71.10;;;;;;;2.97;69.57;100043.93;107225;1257;98530;-65
2024/01/03 06:29:34;;;;;;;219.10;87.40;;;;;;;2.95;69.48;100043.92;107238;1257;97958;-64
2024/01/03 06:32:07;;;;;;;69.30;30.80;;;;;;;2.95;69.91;100033.60;107022;1256;112256;-64
2024/01/03 06:34:35;;;;;;;58.20;30.40;;;;;;;3.00;70.11;100034.55;107064;1256;107859;-64
2024/01/03 06:37:04;;;;;;;31.10;16.00;;;;;;;3.07;69.97;100030.11;107042;1256;108558;-63
2024/01/03 06:39:32;;;;;;;29.30;15.00;;;;;;;3.12;69.89;100028.23;107012;1256;97851;-64
2024/01/03 06:42:00;;;;;;;21.60;10.00;;;;;;;3.15;69.98;100013.08;107066;1256;97864;-64
2024/01/03 06:44:29;;;;;;;27.90;14.00;;;;;;;3.25;69.94;100008.89;107067;1256;110240;-64
2024/01/03 06:46:57;;;;;;;26.00;11.40;;;;;;;3.34;69.64;100017.16;107004;1257;108207;-65
2024/01/03 06:49:26;;;;;;;23.50;11.40;;;;;;;3.38;69.69;100012.23;106951;1257;108538;-64
2024/01/03 06:51:57;;;;;;;22.60;11.00;;;;;;;3.39;69.53;100007.89;106996;1257;97842;-65
2024/01/03 06:54:25;;;;;;;24.80;11.60;;;;;;;3.39;69.29;99997.84;107242;1256;97836;-63
2024/01/03 06:56:54;;;;;;;22.70;12.70;;;;;;;3.37;69.15;99994.00;107199;1257;110742;-63
2024/01/03 06:59:23;;;;;;;44.30;22.70;;;;;;;3.38;69.13;99988.30;107190;1257;108654;-63
2024/01/03 07:01:51;;;;;;;34.10;18.60;;;;;;;3.39;69.24;99985.22;107190;1256;108262;-63
2024/01/03 07:04:22;;;;;;;40.90;20.40;;;;;;;3.41;69.11;99987.54;107165;1256;97928;-64
2024/01/03 07:06:53;;;;;;;;;;;;;;;3.46;69.14;99985.98;107226;1256;97856;-65
2024/01/03 07:09:22;;;;;;;31.40;18.30;;;;;;;3.50;69.26;99982.16;107205;1259;111763;-64
2024/01/03 07:11:50;;;;;;;32.80;17.30;;;;;;;3.55;68.84;99977.55;107246;1256;108482;-63
2024/01/03 07:14:18;;;;;;;27.80;13.80;;;;;;;3.57;68.82;99968.15;107173;1260;107797;-66
2024/01/03 07:16:47;;;;;;;24.40;13.20;;;;;;;3.59;68.44;99962.73;107151;1260;97822;-63
2024/01/03 07:19:19;;;;;;;26.20;14.20;;;;;;;3.59;68.74;99955.45;107197;1256;98359;-64
2024/01/03 07:21:47;;;;;;;32.70;14.80;;;;;;;3.57;68.58;99950.92;107205;1256;112134;-64
2024/01/03 07:24:16;;;;;;;29.30;14.80;;;;;;;3.57;68.70;99947.96;107206;1260;107692;-66
2024/01/03 07:26:45;;;;;;;27.10;14.90;;;;;;;3.57;68.90;99946.69;107216;1256;107882;-63
2024/01/03 07:29:13;;;;;;;29.30;14.10;;;;;;;3.57;68.93;99938.73;107174;1256;97977;-63
2024/01/03 07:31:41;;;;;;;30.40;14.70;;;;;;;3.59;68.79;99941.06;107293;1257;97848;-63
2024/01/03 07:34:11;;;;;;;29.90;15.60;;;;;;;3.61;69.04;99931.55;107332;1259;111542;-64
2024/01/03 07:36:39;;;;;;;28.90;14.20;;;;;;;3.63;68.84;99934.55;107205;1256;107620;-63
2024/01/03 07:39:09;;;;;;;43.20;17.20;;;;;;;3.66;68.92;99927.63;107225;1256;107731;-66
2024/01/03 07:41:39;;;;;;;38.30;18.00;;;;;;;3.68;68.69;99927.61;107104;1256;97958;-66
2024/01/03 07:44:08;;;;;;;38.20;18.70;;;;;;;3.72;68.97;99924.48;107141;1257;97825;-63
2024/01/03 07:46:37;;;;;;;32.80;15.90;;;;;;;3.79;68.87;99915.13;107157;1257;112156;-64
2024/01/03 07:49:06;;;;;;;29.90;15.00;;;;;;;3.88;68.96;99911.63;107226;1256;107422;-65
2024/01/03 07:51:38;;;;;;;28.50;14.30;;;;;;;3.96;68.98;99911.73;107268;1254;108693;-64
2024/01/03 07:54:07;;;;;;;28.10;15.80;;;;;;;4.05;68.99;99913.20;107255;1260;98033;-66
2024/01/03 07:56:36;;;;;;;33.20;15.50;;;;;;;4.14;69.33;99912.70;107351;1254;98377;-65
2024/01/03 07:59:05;;;;;;;30.50;13.70;;;;;;;4.22;69.35;99918.48;107256;1254;111305;-62
2024/01/03 08:01:33;;;;;;;28.50;13.90;;;;;;;4.29;69.42;99910.89;107123;1257;108464;-64
2024/01/03 08:04:04;;;;;;;23.60;12.30;;;;;;;4.35;69.36;99902.61;107241;1256;108693;-66
2024/01/03 08:06:33;;;;;;;24.10;12.60;;;;;;;4.44;69.40;99903.70;107214;1259;97938;-64
2024/01/03 08:09:02;;;;;;;26.10;12.40;;;;;;;4.54;69.37;99906.50;107389;1254;97706;-63
2024/01/03 08:11:30;;;;;;;29.90;12.80;;;;;;;4.62;69.23;99905.89;107388;1254;110987;-66
2024/01/03 08:13:59;;;;;;;29.30;14.10;;;;;;;4.71;69.17;99907.64;107348;1254;108661;-65
2024/01/03 08:16:27;;;;;;;28.60;14.60;;;;;;;4.84;69.06;99899.24;107272;1254;108143;-65
2024/01/03 08:18:56;;;;;;;24.90;12.20;;;;;;;4.97;69.01;99902.86;107202;1256;97941;-63
2024/01/03 08:21:25;;;;;;;24.00;11.80;;;;;;;5.08;68.90;99903.96;107459;1254;97859;-64
2024/01/03 08:23:54;;;;;;;22.90;11.90;;;;;;;5.14;68.61;99896.83;107366;1255;112373;-66
2024/01/03 08:26:23;;;;;;;20.80;11.10;;;;;;;5.19;68.38;99886.87;107372;1254;109789;-64
2024/01/03 08:28:52;;;;;;;30.30;13.00;;;;;;;5.21;67.86;99885.84;107300;1256;108321;-64
2024/01/03 08:31:20;;;;;;;30.70;15.40;;;;;;;5.23;67.79;99882.13;107308;1257;97881;-65
2024/01/03 08:33:49;;;;;;;33.40;15.40;;;;;;;5.25;67.74;99882.79;107324;1256;97716;-65
2024/01/03 08:36:18;;;;;;;27.50;13.30;;;;;;;5.31;67.56;99878.98;107310;1259;111735;-66
2024/01/03 08:38:47;;;;;;;25.70;12.90;;;;;;;5.35;67.58;99877.80;107338;1255;108058;-64
2024/01/03 08:41:19;;;;;;;29.10;13.70;;;;;;;5.36;67.35;99876.97;107139;1257;107529;-64
2024/01/03 08:43:48;;;;;;;23.70;11.80;;;;;;;5.37;67.30;99865.84;106542;1256;1071836;-64
2024/01/03 08:46:16;;;;;;;23.50;13.20;;;;;;;5.38;67.01;99857.45;107284;1257;97857;-63
2024/01/03 08:48:45;;;;;;;27.50;12.70;;;;;;;5.39;66.80;99850.02;107237;1257;111525;-64
2024/01/03 08:51:16;;;;;;;20.40;9.30;;;;;;;5.42;66.32;99842.02;107230;1258;108278;-64
2024/01/03 08:53:45;;;;;;;22.90;8.40;;;;;;;5.47;65.56;99845.70;107057;1256;107861;-65
2024/01/03 08:56:18;;;;;;;17.20;8.00;;;;;;;5.55;61.86;99843.60;107203;1256;97932;-64
2024/01/03 08:58:47;;;;;;;14.90;7.50;;;;;;;5.66;60.73;99838.05;107286;1256;97787;-66
2024/01/03 09:01:17;;;;;;;21.00;6.90;;;;;;;5.80;59.65;99836.05;107302;1257;111970;-65
2024/01/03 09:03:47;;;;;;;17.10;7.30;;;;;;;5.96;57.66;99827.94;106957;1255;108340;-67
2024/01/03 09:06:20;;;;;;;14.90;6.70;;;;;;;6.08;58.58;99820.85;107286;1257;107403;-64
2024/01/03 09:08:54;;;;;;;19.40;7.30;;;;;;;6.19;59.13;99808.38;107209;1257;97716;-64
2024/01/03 09:11:24;;;;;;;15.90;6.90;;;;;;;6.31;57.71;99812.17;107208;1260;98049;-65
2024/01/03 09:13:53;;;;;;;15.40;7.40;;;;;;;6.43;57.79;99808.15;107281;1258;111531;-65
2024/01/03 09:16:23;;;;;;;22.10;8.00;;;;;;;6.52;58.48;99796.67;107274;1256;107824;-64
2024/01/03 09:18:51;;;;;;;18.50;7.10;;;;;;;6.62;58.75;99796.32;107264;1258;107505;-63
2024/01/03 09:21:20;;;;;;;17.60;7.10;;;;;;;6.72;58.82;99789.76;107197;1256;97847;-64
2024/01/03 09:23:50;;;;;;;22.60;7.50;;;;;;;6.85;58.77;99789.55;107231;1256;98402;-65
2024/01/03 09:26:25;;;;;;;28.80;9.20;;;;;;;6.95;58.53;99784.87;107224;1256;113125;-63
2024/01/03 09:28:53;;;;;;;38.40;12.40;;;;;;;7.05;58.72;99777.23;107252;1256;107302;-65
2024/01/03 09:31:22;;;;;;;46.10;16.60;;;;;;;7.11;58.87;99773.30;106976;1257;108417;-65
2024/01/03 09:33:50;;;;;;;66.50;17.30;;;;;;;7.15;58.29;99770.50;107255;1257;97857;-65
2024/01/03 09:36:20;;;;;;;55.30;14.80;;;;;;;7.16;58.68;99772.14;107311;1257;97729;-63
2024/01/03 09:38:54;;;;;;;42.10;14.70;;;;;;;7.19;58.84;99760.78;107298;1257;112128;-65
2024/01/03 09:41:24;;;;;;;81.10;28.00;;;;;;;7.23;58.82;99756.87;107295;1256;107493;-66
2024/01/03 09:43:52;;;;;;;57.80;17.00;;;;;;;7.28;58.47;99752.65;107265;1255;107296;-66
2024/01/03 09:46:23;;;;;;;40.00;14.60;;;;;;;7.34;57.82;99750.73;107219;1256;97857;-64
2024/01/03 09:48:51;;;;;;;26.70;12.30;;;;;;;7.40;58.00;99738.44;107281;1255;98023;-66
2024/01/03 09:51:21;;;;;;;20.50;8.80;;;;;;;7.50;56.65;99739.81;107103;1257;112068;-64
2024/01/03 09:53:52;;;;;;;24.10;8.20;;;;;;;7.62;56.00;99734.48;107320;1257;107955;-64
2024/01/03 09:56:20;;;;;;;26.40;8.10;;;;;;;7.75;54.57;99731.21;107249;1255;108524;-63
2024/01/03 09:58:49;;;;;;;16.80;6.40;;;;;;;7.88;54.77;99726.29;107261;1257;97829;-65
2024/01/03 10:01:17;;;;;;;17.20;6.60;;;;;;;7.96;53.12;99719.64;107256;1257;97928;-64
2024/01/03 10:03:46;;;;;;;13.30;6.60;;;;;;;8.04;51.68;99711.77;107258;1257;111802;-64
2024/01/03 10:06:14;;;;;;;20.60;8.20;;;;;;;8.09;51.06;99703.05;107290;1257;108049;-66
2024/01/03 10:09:02;;;;;;;19.30;6.80;;;;;;;8.10;51.50;99697.27;107285;1257;107560;-65
2024/01/03 10:11:31;;;;;;;;;;;;;;;8.12;50.85;99686.88;107327;1256;97921;-65
2024/01/03 10:14:16;;;;;;;20.60;6.30;;;;;;;8.19;49.96;99687.91;107317;1256;97838;-64
2024/01/03 10:16:44;;;;;;;12.40;6.20;;;;;;;8.25;50.08;99680.34;107305;1255;112189;-65
2024/01/03 10:19:15;;;;;;;18.00;7.40;;;;;;;8.32;49.37;99684.48;107338;1256;108810;-65
2024/01/03 10:21:49;;;;;;;17.80;6.60;;;;;;;8.37;49.85;99670.02;107279;1259;106997;-63
2024/01/03 10:24:18;;;;;;;16.90;7.10;;;;;;;8.43;49.63;99664.09;107274;1259;97976;-63
2024/01/03 10:26:48;;;;;;;22.00;7.00;;;;;;;8.53;48.54;99664.64;107275;1255;98340;-62
2024/01/03 10:29:18;;;;;;;19.10;6.90;;;;;;;8.59;48.88;99663.16;107279;1256;112153;-64
2024/01/03 10:31:48;;;;;;;14.20;6.90;;;;;;;8.64;49.05;99658.91;107291;1257;107977;-63
2024/01/03 10:34:23;;;;;;;21.70;7.10;;;;;;;8.70;49.25;99655.80;107217;1257;107488;-63
2024/01/03 10:36:55;;;;;;;24.90;7.30;;;;;;;8.79;49.09;99653.83;107257;1255;97967;-65
2024/01/03 10:39:27;;;;;;;16.20;7.60;;;;;;;8.89;48.51;99643.42;107333;1255;97856;-63
2024/01/03 10:41:56;;;;;;;21.50;8.10;;;;;;;8.97;48.46;99635.30;107292;1257;111568;-64
2024/01/03 10:44:26;;;;;;;16.80;7.40;;;;;;;9.00;48.60;99625.81;107236;1256;108911;-65
2024/01/03 10:46:56;;;;;;;18.70;7.10;;;;;;;9.04;48.37;99620.63;107282;1259;107315;-65
2024/01/03 10:49:25;;;;;;;20.90;7.90;;;;;;;9.07;47.52;99619.04;107328;1257;97946;-66
2024/01/03 10:52:02;;;;;;;13.40;7.60;;;;;;;9.09;47.04;99621.97;107249;1256;98669;-64
2024/01/03 10:54:42;;;;;;;14.40;6.70;;;;;;;9.06;47.45;99619.51;107235;1256;110628;-64
2024/01/03 10:57:12;;;;;;;18.00;7.20;;;;;;;9.10;47.26;99604.98;107209;1257;108247;-65
2024/01/03 10:59:52;;;;;;;17.20;7.40;;;;;;;9.12;47.56;99606.80;107204;1259;106787;-64
2024/01/03 11:02:53;;;;;;;22.10;7.70;;;;;;;9.16;47.37;99601.77;107323;1257;97816;-64
2024/01/03 11:05:52;;;;;;;28.50;7.60;;;;;;;9.18;47.71;99611.34;107243;1257;97715;-65
2024/01/03 11:08:23;;;;;;;16.20;6.00;;;;;;;9.20;47.61;99606.33;107238;1259;111953;-64
2024/01/03 11:10:53;;;;;;;17.90;7.10;;;;;;;9.21;47.93;99604.77;107272;1256;108626;-64
2024/01/03 11:13:29;;;;;;;20.10;7.00;;;;;;;9.20;48.28;99603.41;107253;1257;109394;-64
2024/01/03 11:15:59;;;;;;;17.30;8.10;;;;;;;9.21;47.54;99597.23;107249;1257;97932;-63
2024/01/03 11:18:39;;;;;;;19.60;9.00;;;;;;;9.18;47.35;99598.70;107363;1257;97848;-64
2024/01/03 11:21:26;;;;;;;16.40;7.90;;;;;;;9.16;47.24;99604.45;107219;1255;111690;-64
2024/01/03 11:23:55;;;;;;;23.40;8.00;;;;;;;9.14;47.44;99608.20;107266;1257;108068;-64